sensor_id;sensor_type;location;lat;lon;timestamp;pressure;altitude;pressure_sealevel;temperature;humidity
16613;BME280;8419;52.358;9.752;2022-12-31T00:01:49;99787.00;;;21.18;41.72
16613;BME280;8419;52.358;9.752;2022-12-31T00:04:34;99798.00;;;21.16;41.75
16613;BME280;8419;52.358;9.752;2022-12-31T00:07:20;99806.00;;;21.18;41.75
16613;BME280;8419;52.358;9.752;2022-12-31T00:10:07;99801.00;;;21.20;41.76
16613;BME280;8419;52.358;9.752;2022-12-31T00:12:53;99809.00;;;21.23;41.78
16613;BME280;8419;52.358;9.752;2022-12-31T00:15:39;99809.00;;;21.26;41.76
16613;BME280;8419;52.358;9.752;2022-12-31T00:18:25;99797.00;;;21.26;41.77
16613;BME280;8419;52.358;9.752;2022-12-31T00:21:12;99794.00;;;21.27;41.77
16613;BME280;8419;52.358;9.752;2022-12-31T00:23:58;99795.00;;;21.26;41.74
16613;BME280;8419;52.358;9.752;2022-12-31T00:26:43;99800.00;;;21.24;41.83
16613;BME280;8419;52.358;9.752;2022-12-31T00:29:28;99805.00;;;21.24;41.88
16613;BME280;8419;52.358;9.752;2022-12-31T00:32:13;99804.00;;;21.20;41.97
16613;BME280;8419;52.358;9.752;2022-12-31T00:34:58;99799.00;;;21.24;41.92
16613;BME280;8419;52.358;9.752;2022-12-31T00:37:43;99798.00;;;21.26;41.92
16613;BME280;8419;52.358;9.752;2022-12-31T00:40:29;99803.00;;;21.26;41.90
16613;BME280;8419;52.358;9.752;2022-12-31T00:43:14;99804.00;;;21.22;41.97
16613;BME280;8419;52.358;9.752;2022-12-31T00:46:00;99808.00;;;21.20;42.07
16613;BME280;8419;52.358;9.752;2022-12-31T00:48:46;99801.00;;;21.17;42.13
16613;BME280;8419;52.358;9.752;2022-12-31T00:51:31;99808.00;;;21.16;42.22
16613;BME280;8419;52.358;9.752;2022-12-31T00:54:17;99808.00;;;21.18;42.20
16613;BME280;8419;52.358;9.752;2022-12-31T00:57:02;99798.00;;;21.20;42.26
16613;BME280;8419;52.358;9.752;2022-12-31T00:59:47;99808.00;;;21.27;42.24
16613;BME280;8419;52.358;9.752;2022-12-31T01:02:32;99809.00;;;21.38;42.20
16613;BME280;8419;52.358;9.752;2022-12-31T01:05:18;99806.00;;;21.41;42.19
16613;BME280;8419;52.358;9.752;2022-12-31T01:08:04;99807.00;;;21.48;42.16
16613;BME280;8419;52.358;9.752;2022-12-31T01:10:49;99808.00;;;21.52;42.17
16613;BME280;8419;52.358;9.752;2022-12-31T01:13:55;99809.00;;;21.59;42.10
16613;BME280;8419;52.358;9.752;2022-12-31T01:16:42;99818.00;;;21.56;42.20
16613;BME280;8419;52.358;9.752;2022-12-31T01:19:28;99824.00;;;21.62;42.15
16613;BME280;8419;52.358;9.752;2022-12-31T01:22:14;99819.00;;;21.60;42.20
16613;BME280;8419;52.358;9.752;2022-12-31T01:24:59;99835.00;;;21.62;42.25
16613;BME280;8419;52.358;9.752;2022-12-31T01:27:44;99833.00;;;21.59;42.34
16613;BME280;8419;52.358;9.752;2022-12-31T01:30:29;99839.00;;;21.59;42.43
16613;BME280;8419;52.358;9.752;2022-12-31T01:33:15;99827.00;;;21.65;42.33
16613;BME280;8419;52.358;9.752;2022-12-31T01:36:05;99822.00;;;21.70;42.20
16613;BME280;8419;52.358;9.752;2022-12-31T01:38:51;99823.00;;;21.78;42.06
16613;BME280;8419;52.358;9.752;2022-12-31T01:41:38;99823.00;;;21.67;42.30
16613;BME280;8419;52.358;9.752;2022-12-31T01:44:47;99825.00;;;21.65;42.39
16613;BME280;8419;52.358;9.752;2022-12-31T01:47:37;99820.00;;;21.62;42.46
16613;BME280;8419;52.358;9.752;2022-12-31T01:50:28;99805.00;;;21.63;42.51
16613;BME280;8419;52.358;9.752;2022-12-31T01:53:16;99824.00;;;21.63;42.56
16613;BME280;8419;52.358;9.752;2022-12-31T01:56:03;99830.00;;;21.58;42.68
16613;BME280;8419;52.358;9.752;2022-12-31T01:58:50;99831.00;;;21.63;42.68
16613;BME280;8419;52.358;9.752;2022-12-31T02:01:37;99833.00;;;21.62;42.73
16613;BME280;8419;52.358;9.752;2022-12-31T02:04:24;99827.00;;;21.63;42.72
16613;BME280;8419;52.358;9.752;2022-12-31T02:07:11;99823.00;;;21.61;42.81
16613;BME280;8419;52.358;9.752;2022-12-31T02:09:56;99822.00;;;21.62;42.78
16613;BME280;8419;52.358;9.752;2022-12-31T02:12:41;99814.00;;;21.62;42.83
16613;BME280;8419;52.358;9.752;2022-12-31T02:15:31;99800.00;;;21.60;42.89
16613;BME280;8419;52.358;9.752;2022-12-31T02:18:26;99799.00;;;21.59;42.95
16613;BME280;8419;52.358;9.752;2022-12-31T02:21:29;99798.00;;;21.58;43.02
16613;BME280;8419;52.358;9.752;2022-12-31T02:28:00;99796.00;;;21.70;42.88
16613;BME280;8419;52.358;9.752;2022-12-31T02:30:50;99788.00;;;21.72;42.84
16613;BME280;8419;52.358;9.752;2022-12-31T02:33:41;99793.00;;;21.75;42.85
16613;BME280;8419;52.358;9.752;2022-12-31T02:36:32;99777.00;;;21.67;43.03
16613;BME280;8419;52.358;9.752;2022-12-31T02:39:20;99775.00;;;21.72;42.96
16613;BME280;8419;52.358;9.752;2022-12-31T02:42:06;99774.00;;;21.73;42.95
16613;BME280;8419;52.358;9.752;2022-12-31T02:44:51;99778.00;;;21.72;43.01
16613;BME280;8419;52.358;9.752;2022-12-31T02:47:48;99770.00;;;21.68;43.13
16613;BME280;8419;52.358;9.752;2022-12-31T02:50:42;99779.00;;;21.71;43.18
16613;BME280;8419;52.358;9.752;2022-12-31T02:53:51;99783.00;;;21.74;43.18
16613;BME280;8419;52.358;9.752;2022-12-31T02:56:47;99773.00;;;21.71;43.29
16613;BME280;8419;52.358;9.752;2022-12-31T02:59:39;99774.00;;;21.70;43.34
16613;BME280;8419;52.358;9.752;2022-12-31T03:02:46;99774.00;;;21.76;43.34
16613;BME280;8419;52.358;9.752;2022-12-31T03:05:35;99763.00;;;21.76;43.29
16613;BME280;8419;52.358;9.752;2022-12-31T03:08:22;99761.00;;;21.82;43.28
16613;BME280;8419;52.358;9.752;2022-12-31T03:11:08;99749.00;;;21.86;43.19
16613;BME280;8419;52.358;9.752;2022-12-31T03:15:31;99750.00;;;21.87;43.24
16613;BME280;8419;52.358;9.752;2022-12-31T03:18:18;99759.00;;;21.89;43.23
16613;BME280;8419;52.358;9.752;2022-12-31T03:25:13;99751.00;;;21.93;43.21
16613;BME280;8419;52.358;9.752;2022-12-31T03:28:18;99753.00;;;21.93;43.10
16613;BME280;8419;52.358;9.752;2022-12-31T03:31:05;99731.00;;;21.78;43.42
16613;BME280;8419;52.358;9.752;2022-12-31T03:33:51;99732.00;;;21.77;43.49
16613;BME280;8419;52.358;9.752;2022-12-31T03:36:36;99742.00;;;21.78;43.43
16613;BME280;8419;52.358;9.752;2022-12-31T03:39:21;99743.00;;;21.68;43.63
16613;BME280;8419;52.358;9.752;2022-12-31T03:42:06;99745.00;;;21.67;43.66
16613;BME280;8419;52.358;9.752;2022-12-31T03:44:51;99739.00;;;21.36;44.27
16613;BME280;8419;52.358;9.752;2022-12-31T03:47:36;99730.00;;;21.56;43.94
16613;BME280;8419;52.358;9.752;2022-12-31T03:50:22;99714.00;;;21.63;43.83
16613;BME280;8419;52.358;9.752;2022-12-31T03:53:07;99720.00;;;21.64;43.80
16613;BME280;8419;52.358;9.752;2022-12-31T03:55:52;99703.00;;;21.66;43.80
16613;BME280;8419;52.358;9.752;2022-12-31T03:58:37;99696.00;;;21.68;43.83
16613;BME280;8419;52.358;9.752;2022-12-31T04:01:22;99703.00;;;21.76;43.70
16613;BME280;8419;52.358;9.752;2022-12-31T04:04:09;99699.00;;;21.44;44.41
16613;BME280;8419;52.358;9.752;2022-12-31T04:06:53;99700.00;;;21.42;44.57
16613;BME280;8419;52.358;9.752;2022-12-31T04:09:39;99690.00;;;21.42;44.57
16613;BME280;8419;52.358;9.752;2022-12-31T04:12:24;99669.00;;;21.75;43.87
16613;BME280;8419;52.358;9.752;2022-12-31T04:15:15;99676.00;;;21.50;44.42
16613;BME280;8419;52.358;9.752;2022-12-31T04:18:01;99664.00;;;21.49;44.58
16613;BME280;8419;52.358;9.752;2022-12-31T04:20:46;99654.00;;;21.53;44.50
16613;BME280;8419;52.358;9.752;2022-12-31T04:23:31;99642.00;;;21.54;44.53
16613;BME280;8419;52.358;9.752;2022-12-31T04:26:16;99640.00;;;21.59;44.49
16613;BME280;8419;52.358;9.752;2022-12-31T04:29:02;99663.00;;;21.62;44.51
16613;BME280;8419;52.358;9.752;2022-12-31T04:31:47;99681.00;;;21.63;44.69
16613;BME280;8419;52.358;9.752;2022-12-31T04:34:32;99689.00;;;21.77;44.58
16613;BME280;8419;52.358;9.752;2022-12-31T04:37:18;99670.00;;;21.78;44.58
16613;BME280;8419;52.358;9.752;2022-12-31T04:40:05;99677.00;;;21.85;44.48
16613;BME280;8419;52.358;9.752;2022-12-31T04:42:50;99678.00;;;22.00;44.28
16613;BME280;8419;52.358;9.752;2022-12-31T04:45:36;99694.00;;;22.06;44.05
16613;BME280;8419;52.358;9.752;2022-12-31T04:48:21;99692.00;;;22.02;44.16
16613;BME280;8419;52.358;9.752;2022-12-31T04:51:06;99702.00;;;22.01;44.26
16613;BME280;8419;52.358;9.752;2022-12-31T04:53:51;99707.00;;;21.82;44.72
16613;BME280;8419;52.358;9.752;2022-12-31T04:56:36;99729.00;;;21.72;45.01
16613;BME280;8419;52.358;9.752;2022-12-31T04:59:22;99734.00;;;21.67;45.10
16613;BME280;8419;52.358;9.752;2022-12-31T05:02:08;99753.00;;;21.78;45.22
16613;BME280;8419;52.358;9.752;2022-12-31T05:04:53;99760.00;;;21.84;45.30
16613;BME280;8419;52.358;9.752;2022-12-31T05:07:38;99751.00;;;21.66;45.76
16613;BME280;8419;52.358;9.752;2022-12-31T05:10:26;99764.00;;;21.67;45.84
16613;BME280;8419;52.358;9.752;2022-12-31T05:13:12;99742.00;;;21.59;46.17
16613;BME280;8419;52.358;9.752;2022-12-31T05:15:57;99743.00;;;21.61;46.22
16613;BME280;8419;52.358;9.752;2022-12-31T05:18:42;99740.00;;;21.64;46.14
16613;BME280;8419;52.358;9.752;2022-12-31T05:21:28;99745.00;;;21.53;46.44
16613;BME280;8419;52.358;9.752;2022-12-31T05:24:13;99732.00;;;21.56;46.38
16613;BME280;8419;52.358;9.752;2022-12-31T05:26:58;99728.00;;;21.49;46.46
16613;BME280;8419;52.358;9.752;2022-12-31T05:29:44;99730.00;;;21.63;46.16
16613;BME280;8419;52.358;9.752;2022-12-31T05:32:29;99746.00;;;21.89;45.60
16613;BME280;8419;52.358;9.752;2022-12-31T05:35:15;99764.00;;;21.75;45.88
16613;BME280;8419;52.358;9.752;2022-12-31T05:38:01;99776.00;;;21.68;46.03
16613;BME280;8419;52.358;9.752;2022-12-31T05:40:47;99779.00;;;21.81;45.74
16613;BME280;8419;52.358;9.752;2022-12-31T05:43:32;99776.00;;;21.76;45.87
16613;BME280;8419;52.358;9.752;2022-12-31T05:46:18;99774.00;;;21.73;45.93
16613;BME280;8419;52.358;9.752;2022-12-31T05:49:03;99796.00;;;21.70;46.01
16613;BME280;8419;52.358;9.752;2022-12-31T05:51:49;99791.00;;;21.75;45.87
16613;BME280;8419;52.358;9.752;2022-12-31T05:54:34;99805.00;;;21.76;45.91
16613;BME280;8419;52.358;9.752;2022-12-31T05:57:20;99800.00;;;21.70;46.01
16613;BME280;8419;52.358;9.752;2022-12-31T06:00:08;99803.00;;;21.68;46.08
16613;BME280;8419;52.358;9.752;2022-12-31T06:02:54;99800.00;;;21.68;46.02
16613;BME280;8419;52.358;9.752;2022-12-31T06:05:40;99795.00;;;21.67;46.01
16613;BME280;8419;52.358;9.752;2022-12-31T06:08:26;99793.00;;;21.67;45.98
16613;BME280;8419;52.358;9.752;2022-12-31T06:11:11;99774.00;;;21.65;46.01
16613;BME280;8419;52.358;9.752;2022-12-31T06:13:56;99791.00;;;21.67;45.97
16613;BME280;8419;52.358;9.752;2022-12-31T06:16:42;99776.00;;;21.71;45.91
16613;BME280;8419;52.358;9.752;2022-12-31T06:19:27;99785.00;;;21.72;45.95
16613;BME280;8419;52.358;9.752;2022-12-31T06:22:13;99775.00;;;21.77;45.90
16613;BME280;8419;52.358;9.752;2022-12-31T06:24:58;99777.00;;;21.85;45.76
16613;BME280;8419;52.358;9.752;2022-12-31T06:27:43;99783.00;;;21.92;45.68
16613;BME280;8419;52.358;9.752;2022-12-31T06:30:29;99777.00;;;21.96;45.63
16613;BME280;8419;52.358;9.752;2022-12-31T06:33:14;99774.00;;;21.97;45.59
16613;BME280;8419;52.358;9.752;2022-12-31T06:36:01;99781.00;;;21.95;45.63
16613;BME280;8419;52.358;9.752;2022-12-31T06:38:47;99781.00;;;21.99;45.57
16613;BME280;8419;52.358;9.752;2022-12-31T06:41:33;99796.00;;;21.95;45.61
16613;BME280;8419;52.358;9.752;2022-12-31T06:44:18;99803.00;;;21.92;45.69
16613;BME280;8419;52.358;9.752;2022-12-31T06:47:06;99793.00;;;21.95;45.64
16613;BME280;8419;52.358;9.752;2022-12-31T06:49:51;99805.00;;;21.95;45.63
16613;BME280;8419;52.358;9.752;2022-12-31T06:52:37;99799.00;;;21.98;45.61
16613;BME280;8419;52.358;9.752;2022-12-31T06:55:23;99793.00;;;22.03;45.57
16613;BME280;8419;52.358;9.752;2022-12-31T06:58:11;99793.00;;;22.04;45.53
16613;BME280;8419;52.358;9.752;2022-12-31T07:01:03;99787.00;;;22.03;45.61
16613;BME280;8419;52.358;9.752;2022-12-31T07:04:01;99801.00;;;22.06;45.55
16613;BME280;8419;52.358;9.752;2022-12-31T07:06:57;99804.00;;;22.01;45.63
16613;BME280;8419;52.358;9.752;2022-12-31T07:09:52;99792.00;;;22.05;45.54
16613;BME280;8419;52.358;9.752;2022-12-31T07:12:54;99804.00;;;21.98;45.71
16613;BME280;8419;52.358;9.752;2022-12-31T07:15:52;99802.00;;;22.02;45.66
16613;BME280;8419;52.358;9.752;2022-12-31T07:18:45;99802.00;;;22.03;45.65
16613;BME280;8419;52.358;9.752;2022-12-31T07:21:36;99815.00;;;22.03;45.64
16613;BME280;8419;52.358;9.752;2022-12-31T07:24:23;99781.00;;;21.98;45.65
16613;BME280;8419;52.358;9.752;2022-12-31T07:27:19;99841.00;;;21.94;45.72
16613;BME280;8419;52.358;9.752;2022-12-31T07:30:12;99820.00;;;21.88;45.84
16613;BME280;8419;52.358;9.752;2022-12-31T07:33:12;99773.00;;;21.86;45.93
16613;BME280;8419;52.358;9.752;2022-12-31T07:36:09;99810.00;;;21.89;45.85
16613;BME280;8419;52.358;9.752;2022-12-31T07:39:02;99812.00;;;21.78;46.04
16613;BME280;8419;52.358;9.752;2022-12-31T07:41:56;99821.00;;;21.74;46.16
16613;BME280;8419;52.358;9.752;2022-12-31T07:44:56;99849.00;;;21.68;46.32
16613;BME280;8419;52.358;9.752;2022-12-31T07:47:45;99846.00;;;21.76;46.18
16613;BME280;8419;52.358;9.752;2022-12-31T07:50:33;99840.00;;;21.73;46.25
16613;BME280;8419;52.358;9.752;2022-12-31T07:53:19;99855.00;;;21.70;46.31
16613;BME280;8419;52.358;9.752;2022-12-31T07:56:07;99858.00;;;21.66;46.44
16613;BME280;8419;52.358;9.752;2022-12-31T07:59:04;99869.00;;;21.64;46.52
16613;BME280;8419;52.358;9.752;2022-12-31T08:01:57;99870.00;;;21.73;46.35
16613;BME280;8419;52.358;9.752;2022-12-31T08:04:53;99881.00;;;21.73;46.35
16613;BME280;8419;52.358;9.752;2022-12-31T08:07:46;99866.00;;;21.81;46.24
16613;BME280;8419;52.358;9.752;2022-12-31T08:10:39;99873.00;;;21.78;46.34
16613;BME280;8419;52.358;9.752;2022-12-31T08:13:29;99871.00;;;21.77;46.35
16613;BME280;8419;52.358;9.752;2022-12-31T08:16:16;99879.00;;;21.77;46.37
16613;BME280;8419;52.358;9.752;2022-12-31T08:19:02;99886.00;;;21.86;46.23
16613;BME280;8419;52.358;9.752;2022-12-31T08:21:57;99895.00;;;21.88;46.21
16613;BME280;8419;52.358;9.752;2022-12-31T08:24:56;99907.00;;;21.82;46.31
16613;BME280;8419;52.358;9.752;2022-12-31T08:27:47;99911.00;;;21.82;46.35
16613;BME280;8419;52.358;9.752;2022-12-31T08:30:40;99900.00;;;21.78;46.46
16613;BME280;8419;52.358;9.752;2022-12-31T08:33:33;99901.00;;;21.87;46.29
16613;BME280;8419;52.358;9.752;2022-12-31T08:36:24;99889.00;;;21.97;46.08
16613;BME280;8419;52.358;9.752;2022-12-31T08:39:26;99898.00;;;22.03;45.96
16613;BME280;8419;52.358;9.752;2022-12-31T08:42:24;99901.00;;;22.06;46.00
16613;BME280;8419;52.358;9.752;2022-12-31T08:45:15;99913.00;;;22.07;46.03
16613;BME280;8419;52.358;9.752;2022-12-31T08:48:07;99902.00;;;22.10;46.02
16613;BME280;8419;52.358;9.752;2022-12-31T08:50:59;99900.00;;;22.14;46.01
16613;BME280;8419;52.358;9.752;2022-12-31T08:53:45;99895.00;;;22.17;45.95
16613;BME280;8419;52.358;9.752;2022-12-31T08:56:35;99895.00;;;22.17;45.97
16613;BME280;8419;52.358;9.752;2022-12-31T08:59:30;99890.00;;;22.21;46.01
16613;BME280;8419;52.358;9.752;2022-12-31T09:02:46;99897.00;;;22.30;45.95
16613;BME280;8419;52.358;9.752;2022-12-31T09:05:48;99897.00;;;22.30;46.00
16613;BME280;8419;52.358;9.752;2022-12-31T09:08:44;99892.00;;;22.32;45.90
16613;BME280;8419;52.358;9.752;2022-12-31T09:11:43;99880.00;;;22.36;45.81
16613;BME280;8419;52.358;9.752;2022-12-31T09:14:41;99878.00;;;22.36;45.88
16613;BME280;8419;52.358;9.752;2022-12-31T09:17:43;99883.00;;;22.36;45.89
16613;BME280;8419;52.358;9.752;2022-12-31T09:20:30;99885.00;;;22.44;45.78
16613;BME280;8419;52.358;9.752;2022-12-31T09:23:17;99886.00;;;22.57;45.55
16613;BME280;8419;52.358;9.752;2022-12-31T09:26:09;99886.00;;;22.57;45.59
16613;BME280;8419;52.358;9.752;2022-12-31T09:29:06;99882.00;;;22.56;45.70
16613;BME280;8419;52.358;9.752;2022-12-31T09:31:58;99885.00;;;22.59;45.80
16613;BME280;8419;52.358;9.752;2022-12-31T09:34:55;99890.00;;;22.63;45.92
16613;BME280;8419;52.358;9.752;2022-12-31T09:37:45;99886.00;;;22.72;45.84
16613;BME280;8419;52.358;9.752;2022-12-31T09:40:48;99883.00;;;22.86;45.67
16613;BME280;8419;52.358;9.752;2022-12-31T09:44:12;99872.00;;;22.97;45.62
16613;BME280;8419;52.358;9.752;2022-12-31T09:47:20;99873.00;;;23.05;45.63
16613;BME280;8419;52.358;9.752;2022-12-31T09:50:38;99875.00;;;23.14;45.64
16613;BME280;8419;52.358;9.752;2022-12-31T09:53:38;99877.00;;;23.28;45.62
16613;BME280;8419;52.358;9.752;2022-12-31T09:56:28;99866.00;;;23.33;45.68
16613;BME280;8419;52.358;9.752;2022-12-31T09:59:20;99875.00;;;23.45;45.70
16613;BME280;8419;52.358;9.752;2022-12-31T10:02:18;99874.00;;;23.55;45.71
16613;BME280;8419;52.358;9.752;2022-12-31T10:05:39;99868.00;;;23.72;45.64
16613;BME280;8419;52.358;9.752;2022-12-31T10:08:40;99859.00;;;23.86;45.67
16613;BME280;8419;52.358;9.752;2022-12-31T10:11:45;99861.00;;;24.08;45.53
16613;BME280;8419;52.358;9.752;2022-12-31T10:14:46;99857.00;;;24.35;45.21
16613;BME280;8419;52.358;9.752;2022-12-31T10:17:51;99856.00;;;24.54;45.12
16613;BME280;8419;52.358;9.752;2022-12-31T10:20:49;99856.00;;;24.70;44.99
16613;BME280;8419;52.358;9.752;2022-12-31T10:24:09;99866.00;;;24.86;44.69
16613;BME280;8419;52.358;9.752;2022-12-31T10:27:13;99846.00;;;25.25;44.03
16613;BME280;8419;52.358;9.752;2022-12-31T10:30:14;99841.00;;;25.46;43.55
16613;BME280;8419;52.358;9.752;2022-12-31T10:33:07;99836.00;;;25.66;43.16
16613;BME280;8419;52.358;9.752;2022-12-31T10:36:08;99837.00;;;25.75;43.09
16613;BME280;8419;52.358;9.752;2022-12-31T10:39:06;99848.00;;;25.73;42.81
16613;BME280;8419;52.358;9.752;2022-12-31T10:46:02;99824.00;;;25.92;42.16
16613;BME280;8419;52.358;9.752;2022-12-31T10:49:18;99835.00;;;25.95;41.87
16613;BME280;8419;52.358;9.752;2022-12-31T10:52:24;99848.00;;;25.93;41.69
16613;BME280;8419;52.358;9.752;2022-12-31T10:59:13;99843.00;;;26.20;40.87
16613;BME280;8419;52.358;9.752;2022-12-31T11:02:23;99849.00;;;26.26;40.39
16613;BME280;8419;52.358;9.752;2022-12-31T11:05:36;99838.00;;;26.25;39.97
16613;BME280;8419;52.358;9.752;2022-12-31T11:08:39;99849.00;;;26.28;39.59
16613;BME280;8419;52.358;9.752;2022-12-31T11:11:40;99845.00;;;26.31;39.61
16613;BME280;8419;52.358;9.752;2022-12-31T11:14:49;99890.00;;;26.39;39.12
16613;BME280;8419;52.358;9.752;2022-12-31T11:17:46;99887.00;;;25.81;40.17
16613;BME280;8419;52.358;9.752;2022-12-31T11:20:46;99882.00;;;26.21;39.12
16613;BME280;8419;52.358;9.752;2022-12-31T11:23:44;99909.00;;;26.35;38.91
16613;BME280;8419;52.358;9.752;2022-12-31T11:26:43;99909.00;;;26.30;38.83
16613;BME280;8419;52.358;9.752;2022-12-31T11:29:55;99925.00;;;26.28;38.82
16613;BME280;8419;52.358;9.752;2022-12-31T11:32:59;99944.00;;;26.07;39.20
16613;BME280;8419;52.358;9.752;2022-12-31T11:36:04;99985.00;;;25.52;40.49
16613;BME280;8419;52.358;9.752;2022-12-31T11:39:00;99995.00;;;25.02;41.32
16613;BME280;8419;52.358;9.752;2022-12-31T11:42:03;99973.00;;;24.66;42.79
16613;BME280;8419;52.358;9.752;2022-12-31T11:45:00;99976.00;;;24.44;43.71
16613;BME280;8419;52.358;9.752;2022-12-31T11:47:53;99984.00;;;24.33;44.26
16613;BME280;8419;52.358;9.752;2022-12-31T11:50:50;99985.00;;;24.25;44.80
16613;BME280;8419;52.358;9.752;2022-12-31T11:53:59;99969.00;;;24.21;45.14
16613;BME280;8419;52.358;9.752;2022-12-31T11:56:52;99971.00;;;24.23;45.29
16613;BME280;8419;52.358;9.752;2022-12-31T11:59:41;99964.00;;;24.19;45.58
16613;BME280;8419;52.358;9.752;2022-12-31T12:02:30;99964.00;;;24.19;45.64
16613;BME280;8419;52.358;9.752;2022-12-31T12:05:19;99965.00;;;24.15;45.80
16613;BME280;8419;52.358;9.752;2022-12-31T12:08:06;99961.00;;;24.13;45.95
16613;BME280;8419;52.358;9.752;2022-12-31T12:10:54;99958.00;;;24.11;46.03
16613;BME280;8419;52.358;9.752;2022-12-31T12:13:42;99956.00;;;24.10;46.20
16613;BME280;8419;52.358;9.752;2022-12-31T12:16:27;99967.00;;;24.13;46.21
16613;BME280;8419;52.358;9.752;2022-12-31T12:19:17;99959.00;;;24.19;46.33
16613;BME280;8419;52.358;9.752;2022-12-31T12:22:12;99948.00;;;24.36;46.20
16613;BME280;8419;52.358;9.752;2022-12-31T12:25:04;99971.00;;;24.44;46.17
16613;BME280;8419;52.358;9.752;2022-12-31T12:27:50;99958.00;;;24.47;46.27
16613;BME280;8419;52.358;9.752;2022-12-31T12:30:38;99948.00;;;24.54;46.28
16613;BME280;8419;52.358;9.752;2022-12-31T12:33:25;99955.00;;;24.65;46.31
16613;BME280;8419;52.358;9.752;2022-12-31T12:36:13;99959.00;;;24.87;46.12
16613;BME280;8419;52.358;9.752;2022-12-31T12:39:01;99971.00;;;24.98;46.18
16613;BME280;8419;52.358;9.752;2022-12-31T12:41:59;99963.00;;;25.19;45.98
16613;BME280;8419;52.358;9.752;2022-12-31T12:44:45;99958.00;;;25.42;45.67
16613;BME280;8419;52.358;9.752;2022-12-31T12:47:31;99961.00;;;25.55;45.55
16613;BME280;8419;52.358;9.752;2022-12-31T12:50:19;99961.00;;;25.70;45.37
16613;BME280;8419;52.358;9.752;2022-12-31T12:53:14;99955.00;;;25.78;45.20
16613;BME280;8419;52.358;9.752;2022-12-31T12:56:14;99963.00;;;25.78;45.07
16613;BME280;8419;52.358;9.752;2022-12-31T12:59:33;99965.00;;;25.75;45.11
16613;BME280;8419;52.358;9.752;2022-12-31T13:06:00;99960.00;;;25.79;44.87
16613;BME280;8419;52.358;9.752;2022-12-31T13:09:02;99965.00;;;25.85;44.80
16613;BME280;8419;52.358;9.752;2022-12-31T13:12:00;99976.00;;;25.84;44.83
16613;BME280;8419;52.358;9.752;2022-12-31T13:14:55;99993.00;;;25.80;44.87
16613;BME280;8419;52.358;9.752;2022-12-31T13:17:53;99983.00;;;25.80;44.64
16613;BME280;8419;52.358;9.752;2022-12-31T13:20:43;99995.00;;;25.84;44.74
16613;BME280;8419;52.358;9.752;2022-12-31T13:23:37;99982.00;;;25.94;44.52
16613;BME280;8419;52.358;9.752;2022-12-31T13:26:29;99975.00;;;25.93;44.50
16613;BME280;8419;52.358;9.752;2022-12-31T13:29:19;99975.00;;;25.90;44.37
16613;BME280;8419;52.358;9.752;2022-12-31T13:32:11;99974.00;;;25.83;44.51
16613;BME280;8419;52.358;9.752;2022-12-31T13:35:04;99970.00;;;25.88;44.49
16613;BME280;8419;52.358;9.752;2022-12-31T13:37:58;99964.00;;;25.98;44.24
16613;BME280;8419;52.358;9.752;2022-12-31T13:40:50;99981.00;;;26.08;44.10
16613;BME280;8419;52.358;9.752;2022-12-31T13:43:42;99957.00;;;26.20;43.90
16613;BME280;8419;52.358;9.752;2022-12-31T13:46:37;99971.00;;;26.25;43.82
16613;BME280;8419;52.358;9.752;2022-12-31T13:49:30;99974.00;;;26.30;43.27
16613;BME280;8419;52.358;9.752;2022-12-31T13:52:28;99964.00;;;26.34;43.16
16613;BME280;8419;52.358;9.752;2022-12-31T13:55:19;99960.00;;;26.38;43.14
16613;BME280;8419;52.358;9.752;2022-12-31T13:58:13;99967.00;;;26.35;43.19
16613;BME280;8419;52.358;9.752;2022-12-31T14:01:08;99958.00;;;26.35;42.89
16613;BME280;8419;52.358;9.752;2022-12-31T14:04:01;99972.00;;;26.41;42.96
16613;BME280;8419;52.358;9.752;2022-12-31T14:06:52;99969.00;;;26.37;42.72
16613;BME280;8419;52.358;9.752;2022-12-31T14:09:38;99964.00;;;26.42;42.70
16613;BME280;8419;52.358;9.752;2022-12-31T14:12:33;99996.00;;;26.42;42.99
16613;BME280;8419;52.358;9.752;2022-12-31T14:15:27;99996.00;;;26.40;42.65
16613;BME280;8419;52.358;9.752;2022-12-31T14:18:19;99983.00;;;26.39;42.70
16613;BME280;8419;52.358;9.752;2022-12-31T14:21:10;99984.00;;;26.43;42.62
16613;BME280;8419;52.358;9.752;2022-12-31T14:24:01;99985.00;;;26.45;42.63
16613;BME280;8419;52.358;9.752;2022-12-31T14:26:53;99958.00;;;26.45;42.37
16613;BME280;8419;52.358;9.752;2022-12-31T14:29:43;99997.00;;;26.44;42.16
16613;BME280;8419;52.358;9.752;2022-12-31T14:32:54;99977.00;;;26.39;41.91
16613;BME280;8419;52.358;9.752;2022-12-31T14:35:54;99990.00;;;26.40;41.75
16613;BME280;8419;52.358;9.752;2022-12-31T14:38:58;100002.00;;;26.42;41.57
16613;BME280;8419;52.358;9.752;2022-12-31T14:41:51;99987.00;;;26.38;41.52
16613;BME280;8419;52.358;9.752;2022-12-31T14:44:54;99976.00;;;26.41;41.32
16613;BME280;8419;52.358;9.752;2022-12-31T14:47:51;99991.00;;;26.47;41.11
16613;BME280;8419;52.358;9.752;2022-12-31T14:50:37;100033.00;;;26.43;41.35
16613;BME280;8419;52.358;9.752;2022-12-31T14:53:24;100011.00;;;26.52;40.64
16613;BME280;8419;52.358;9.752;2022-12-31T14:56:29;100020.00;;;26.51;40.65
16613;BME280;8419;52.358;9.752;2022-12-31T14:59:27;100030.00;;;26.51;40.77
16613;BME280;8419;52.358;9.752;2022-12-31T15:02:27;100038.00;;;26.41;40.49
16613;BME280;8419;52.358;9.752;2022-12-31T15:05:18;100065.00;;;26.46;40.69
16613;BME280;8419;52.358;9.752;2022-12-31T15:11:29;100077.00;;;26.37;40.79
16613;BME280;8419;52.358;9.752;2022-12-31T15:18:15;100061.00;;;26.40;40.68
16613;BME280;8419;52.358;9.752;2022-12-31T15:21:19;100067.00;;;26.24;40.89
16613;BME280;8419;52.358;9.752;2022-12-31T15:24:17;100078.00;;;26.19;41.05
16613;BME280;8419;52.358;9.752;2022-12-31T15:27:05;100060.00;;;26.23;40.84
16613;BME280;8419;52.358;9.752;2022-12-31T15:30:27;100052.00;;;26.25;40.69
16613;BME280;8419;52.358;9.752;2022-12-31T15:33:21;100064.00;;;26.26;40.50
16613;BME280;8419;52.358;9.752;2022-12-31T15:36:17;100076.00;;;26.17;40.31
16613;BME280;8419;52.358;9.752;2022-12-31T15:39:17;100067.00;;;26.24;39.97
16613;BME280;8419;52.358;9.752;2022-12-31T15:42:29;100078.00;;;26.26;39.57
16613;BME280;8419;52.358;9.752;2022-12-31T15:45:23;100092.00;;;26.23;39.60
16613;BME280;8419;52.358;9.752;2022-12-31T15:48:15;100076.00;;;26.20;39.84
16613;BME280;8419;52.358;9.752;2022-12-31T15:51:03;100075.00;;;26.13;39.66